createdAt,value
2022-10-01T00:01:37.067Z,10.26
2022-10-01T00:04:39.987Z,10.23
2022-10-01T00:07:44.089Z,10.08
2022-10-01T00:10:47.112Z,10.09
2022-10-01T00:13:49.721Z,9.87
2022-10-01T00:16:51.944Z,9.79
2022-10-01T00:19:54.059Z,9.85
2022-10-01T00:22:56.143Z,9.63
2022-10-01T00:26:18.714Z,9.61
2022-10-01T00:29:20.783Z,9.54
2022-10-01T00:32:23.394Z,9.61
2022-10-01T00:35:25.717Z,9.83
2022-10-01T00:38:28.926Z,10.08
2022-10-01T00:41:33.797Z,10.05
2022-10-01T00:44:37.220Z,10.09
2022-10-01T00:47:43.188Z,10.17
2022-10-01T00:50:45.339Z,10.12
2022-10-01T00:53:47.503Z,10.16
2022-10-01T00:56:51.284Z,10.16
2022-10-01T00:59:55.550Z,10.19
2022-10-01T01:02:57.656Z,10.14
2022-10-01T01:05:59.971Z,10.24
2022-10-01T01:09:03.214Z,9.87
2022-10-01T01:12:29.488Z,9.60
2022-10-01T01:15:43.834Z,9.75
2022-10-01T01:19:28.988Z,9.80
2022-10-01T01:22:33.264Z,9.96
2022-10-01T01:26:01.770Z,9.89
2022-10-01T01:29:17.068Z,9.80
2022-10-01T01:32:42.820Z,9.83
2022-10-01T01:35:54.677Z,9.87
2022-10-01T01:39:01.093Z,9.90
2022-10-01T01:42:09.502Z,10.01
2022-10-01T01:45:15.877Z,10.15
2022-10-01T01:48:17.924Z,10.34
2022-10-01T01:51:46.132Z,10.74
2022-10-01T01:54:49.756Z,10.89
2022-10-01T01:57:52.526Z,10.96
2022-10-01T02:00:54.665Z,10.40
2022-10-01T02:03:56.840Z,10.22
2022-10-01T02:07:30.443Z,10.68
2022-10-01T02:10:55.374Z,10.63
2022-10-01T02:14:37.980Z,10.79
2022-10-01T02:17:53.299Z,10.75
2022-10-01T02:21:06.403Z,10.77
2022-10-01T02:24:11.273Z,10.37
2022-10-01T02:27:40.284Z,10.46
2022-10-01T02:30:43.376Z,10.20
2022-10-01T02:33:45.459Z,9.99
2022-10-01T02:36:47.515Z,10.17
2022-10-01T02:39:50.397Z,10.16
2022-10-01T02:42:55.574Z,10.30
2022-10-01T02:46:04.016Z,9.92
2022-10-01T02:49:06.720Z,9.48
2022-10-01T02:52:27.629Z,9.45
2022-10-01T02:55:39.529Z,9.70
2022-10-01T02:58:42.026Z,9.67
2022-10-01T03:01:44.115Z,9.48
2022-10-01T03:04:48.139Z,9.28
2022-10-01T03:07:50.355Z,9.12
2022-10-01T03:10:52.587Z,9.43
2022-10-01T03:13:54.617Z,9.71
2022-10-01T03:16:56.684Z,9.66
2022-10-01T03:19:58.729Z,9.56
2022-10-01T03:23:00.780Z,9.89
2022-10-01T03:26:02.812Z,9.83
2022-10-01T03:29:05.071Z,10.16
2022-10-01T03:32:07.155Z,10.42
2022-10-01T03:35:09.675Z,10.54
2022-10-01T03:38:13.839Z,10.50
2022-10-01T03:41:15.984Z,10.44
2022-10-01T03:44:18.062Z,10.43
2022-10-01T03:47:22.202Z,10.46
2022-10-01T03:50:24.350Z,10.52
2022-10-01T03:53:27.361Z,10.61
2022-10-01T03:56:29.422Z,10.73
2022-10-01T03:59:31.470Z,10.52
2022-10-01T04:02:33.628Z,10.46
2022-10-01T04:05:35.715Z,10.67
2022-10-01T04:08:38.762Z,10.67
2022-10-01T04:11:40.791Z,10.65
2022-10-01T04:14:42.847Z,10.59
2022-10-01T04:17:46.124Z,10.59
2022-10-01T04:20:48.483Z,10.55
2022-10-01T04:23:50.628Z,10.47
2022-10-01T04:26:52.663Z,10.30
2022-10-01T04:29:54.820Z,10.19
2022-10-01T04:32:56.888Z,9.72
2022-10-01T04:35:58.926Z,10.10
2022-10-01T04:39:02.722Z,10.13
2022-10-01T04:42:05.127Z,9.67
2022-10-01T04:45:08.953Z,9.65
2022-10-01T04:48:10.982Z,9.77
2022-10-01T04:51:13.010Z,9.70
2022-10-01T04:54:15.055Z,9.81
2022-10-01T04:57:17.084Z,9.76
2022-10-01T05:00:21.998Z,9.85
2022-10-01T05:03:24.056Z,9.74
2022-10-01T05:06:26.106Z,9.62
2022-10-01T05:09:28.131Z,10.23
2022-10-01T05:12:30.234Z,10.06
2022-10-01T05:15:33.022Z,10.10
2022-10-01T05:18:35.059Z,10.13
2022-10-01T05:21:37.755Z,10.45
2022-10-01T05:24:40.186Z,10.24
2022-10-01T05:27:42.347Z,9.50
2022-10-01T05:30:44.372Z,9.17
2022-10-01T05:33:46.453Z,9.61
2022-10-01T05:36:48.481Z,9.83
2022-10-01T05:39:50.536Z,9.63
2022-10-01T05:42:52.611Z,9.61
2022-10-01T05:45:54.684Z,10.00
2022-10-01T05:48:56.795Z,9.97
2022-10-01T05:52:00.653Z,9.77
2022-10-01T05:55:02.700Z,9.62
2022-10-01T05:58:07.193Z,9.45
2022-10-01T06:01:09.225Z,9.68
2022-10-01T06:04:11.382Z,9.74
2022-10-01T06:07:13.947Z,9.70
2022-10-01T06:10:16.896Z,9.57
2022-10-01T06:13:18.926Z,9.76
2022-10-01T06:16:21.350Z,9.67
2022-10-01T06:19:23.926Z,9.24
2022-10-01T06:22:26.043Z,9.21
2022-10-01T06:25:29.773Z,9.19
2022-10-01T06:28:32.341Z,9.55
2022-10-01T06:31:34.707Z,9.61
2022-10-01T06:34:37.000Z,9.71
2022-10-01T06:37:39.167Z,9.61
2022-10-01T06:40:41.694Z,9.61
2022-10-01T06:43:43.783Z,9.90
2022-10-01T06:46:46.002Z,10.15
2022-10-01T06:49:48.057Z,10.44
2022-10-01T06:52:50.975Z,10.67
2022-10-01T06:55:53.083Z,10.70
2022-10-01T06:58:55.138Z,11.08
2022-10-01T07:01:57.267Z,10.87
2022-10-01T07:04:59.468Z,11.09
2022-10-01T07:08:01.719Z,10.73
2022-10-01T07:11:05.058Z,10.39
2022-10-01T07:14:08.122Z,10.19
2022-10-01T07:17:10.157Z,10.56
2022-10-01T07:20:14.747Z,10.51
2022-10-01T07:23:17.261Z,10.80
2022-10-01T07:26:19.300Z,11.13
2022-10-01T07:29:23.877Z,11.35
2022-10-01T07:32:26.369Z,11.48
2022-10-01T07:35:29.690Z,11.68
2022-10-01T07:38:33.501Z,11.42
2022-10-01T07:41:35.814Z,11.32
2022-10-01T07:44:38.160Z,12.11
2022-10-01T07:47:40.196Z,11.96
2022-10-01T07:50:45.391Z,12.15
2022-10-01T07:53:47.759Z,12.00
2022-10-01T07:56:52.848Z,12.09
2022-10-01T07:59:56.076Z,11.98
2022-10-01T08:02:58.387Z,12.14
2022-10-01T08:06:03.033Z,12.58
2022-10-01T08:09:06.125Z,12.49
2022-10-01T08:12:08.184Z,12.64
2022-10-01T08:15:15.530Z,12.88
2022-10-01T08:18:17.658Z,12.65
2022-10-01T08:21:19.679Z,12.92
2022-10-01T08:24:21.742Z,13.36
2022-10-01T08:27:27.346Z,13.05
2022-10-01T08:30:29.655Z,12.85
2022-10-01T08:33:31.688Z,12.60
2022-10-01T08:36:35.717Z,12.65
2022-10-01T08:39:37.944Z,12.67
2022-10-01T08:43:08.905Z,12.31
2022-10-01T08:46:19.072Z,12.05
2022-10-01T08:49:28.124Z,11.89
2022-10-01T08:52:32.476Z,12.05
2022-10-01T08:55:37.339Z,12.39
2022-10-01T08:58:44.868Z,12.89
2022-10-01T09:01:46.831Z,12.89
2022-10-01T09:04:52.003Z,12.94
2022-10-01T09:08:24.464Z,13.20
2022-10-01T09:11:53.631Z,13.15
2022-10-01T09:15:15.494Z,13.62
2022-10-01T09:18:35.390Z,13.55
2022-10-01T09:21:49.118Z,13.69
2022-10-01T09:25:10.291Z,13.42
2022-10-01T09:28:22.910Z,13.79
2022-10-01T09:31:28.351Z,13.40
2022-10-01T09:34:38.875Z,13.61
2022-10-01T09:37:50.067Z,14.17
2022-10-01T09:40:54.961Z,14.02
2022-10-01T09:43:57.056Z,13.88
2022-10-01T09:46:59.267Z,14.01
2022-10-01T09:50:02.001Z,13.68
2022-10-01T09:53:04.076Z,13.93
2022-10-01T09:56:19.180Z,13.94
2022-10-01T09:59:30.230Z,14.47
2022-10-01T10:02:36.339Z,14.43
2022-10-01T10:05:44.327Z,14.79
2022-10-01T10:08:46.431Z,14.60
2022-10-01T10:11:49.144Z,14.68
2022-10-01T10:14:51.179Z,14.37
2022-10-01T10:17:54.497Z,14.59
2022-10-01T10:20:56.671Z,14.46
2022-10-01T10:24:00.977Z,14.72
2022-10-01T10:27:06.496Z,14.66
2022-10-01T10:30:17.043Z,14.74
2022-10-01T10:33:20.841Z,14.70
2022-10-01T10:36:28.927Z,14.66
2022-10-01T10:39:37.080Z,14.88
2022-10-01T10:42:39.174Z,14.71
2022-10-01T10:45:43.191Z,15.23
2022-10-01T10:48:45.312Z,14.93
2022-10-01T10:51:54.827Z,15.05
2022-10-01T10:54:58.782Z,14.97
2022-10-01T10:58:15.968Z,15.11
2022-10-01T11:01:26.535Z,15.21
2022-10-01T11:04:38.900Z,15.09
2022-10-01T11:07:44.115Z,15.01
2022-10-01T11:11:20.952Z,15.29
2022-10-01T11:14:32.130Z,15.59
2022-10-01T11:18:10.634Z,16.16
2022-10-01T11:21:34.432Z,15.26
2022-10-01T11:25:10.270Z,16.06
2022-10-01T11:28:18.806Z,15.13
2022-10-01T11:31:49.705Z,16.07
2022-10-01T11:35:28.554Z,15.04
2022-10-01T11:38:51.227Z,15.23
2022-10-01T11:42:05.674Z,15.54
2022-10-01T11:45:16.445Z,16.53
2022-10-01T11:48:47.162Z,15.59
2022-10-01T11:51:55.715Z,15.75
2022-10-01T11:55:55.123Z,17.07
2022-10-01T11:59:24.599Z,15.41
2022-10-01T12:02:42.302Z,15.57
2022-10-01T12:05:44.488Z,17.01
2022-10-01T12:08:59.278Z,15.33
2022-10-01T12:12:10.989Z,15.95
2022-10-01T12:15:18.946Z,15.75
2022-10-01T12:18:42.473Z,15.90
2022-10-01T12:22:34.660Z,15.59
2022-10-01T12:25:51.625Z,15.14
2022-10-01T12:29:29.831Z,15.46
2022-10-01T12:32:43.790Z,15.22
2022-10-01T12:36:25.253Z,14.42
2022-10-01T12:39:44.030Z,14.19
2022-10-01T12:43:05.086Z,13.70
2022-10-01T12:46:35.068Z,13.46
2022-10-01T12:50:09.024Z,15.09
2022-10-01T12:53:30.359Z,15.16
2022-10-01T12:56:44.374Z,16.28
2022-10-01T12:59:59.589Z,15.47
2022-10-01T13:03:40.783Z,14.93
2022-10-01T13:07:25.402Z,15.33
2022-10-01T13:10:51.282Z,15.72
2022-10-01T13:13:53.502Z,15.82
2022-10-01T13:17:17.237Z,16.13
2022-10-01T13:20:41.126Z,17.55
2022-10-01T13:24:01.307Z,15.98
2022-10-01T13:27:13.927Z,16.02
2022-10-01T13:30:25.170Z,17.13
2022-10-01T13:33:32.368Z,17.18
2022-10-01T13:36:35.727Z,17.65
2022-10-01T13:39:42.069Z,18.84
2022-10-01T13:42:45.995Z,17.11
2022-10-01T13:45:52.609Z,16.83
2022-10-01T13:48:54.674Z,17.55
2022-10-01T13:51:57.189Z,15.76
2022-10-01T13:55:00.327Z,18.32
2022-10-01T13:58:07.646Z,19.07
2022-10-01T14:01:23.638Z,18.70
2022-10-01T14:04:40.475Z,17.37
2022-10-01T14:07:42.615Z,18.37
2022-10-01T14:11:16.105Z,16.87
2022-10-01T14:15:02.028Z,18.14
2022-10-01T14:18:10.985Z,19.26
2022-10-01T14:21:28.576Z,19.71
2022-10-01T14:24:33.050Z,20.29
2022-10-01T14:28:02.946Z,17.93
2022-10-01T14:31:22.672Z,19.56
2022-10-01T14:34:45.587Z,20.99
2022-10-01T14:37:50.590Z,18.31
2022-10-01T14:40:53.756Z,19.53
2022-10-01T14:43:55.963Z,20.02
2022-10-01T14:46:59.805Z,20.28
2022-10-01T14:50:20.573Z,21.38
2022-10-01T14:53:26.181Z,21.83
2022-10-01T14:56:28.324Z,21.54
2022-10-01T14:59:39.835Z,21.89
2022-10-01T15:02:50.220Z,20.55
2022-10-01T15:06:00.961Z,17.34
2022-10-01T15:09:12.700Z,18.71
2022-10-01T15:12:16.104Z,18.71
2022-10-01T15:15:25.857Z,21.36
2022-10-01T15:18:27.909Z,20.13
2022-10-01T15:21:55.931Z,20.09
2022-10-01T15:24:59.707Z,19.67
2022-10-01T15:28:01.821Z,20.16
2022-10-01T15:31:07.434Z,20.05
2022-10-01T15:34:14.613Z,18.70
2022-10-01T15:37:20.554Z,19.80
2022-10-01T15:40:35.546Z,19.44
2022-10-01T15:43:39.036Z,19.88
2022-10-01T15:46:42.456Z,19.04
2022-10-01T15:50:04.797Z,19.14
2022-10-01T15:53:18.416Z,19.05
2022-10-01T15:56:23.730Z,19.86
2022-10-01T15:59:25.850Z,18.51
2022-10-01T16:02:30.191Z,16.97
2022-10-01T16:05:45.243Z,18.25
2022-10-01T16:09:03.259Z,17.21
2022-10-01T16:12:11.063Z,15.48
2022-10-01T16:15:29.334Z,17.09
2022-10-01T16:18:32.958Z,16.35
2022-10-01T16:21:40.655Z,16.37
2022-10-01T16:24:45.696Z,15.38
2022-10-01T16:27:50.763Z,15.95
2022-10-01T16:30:52.863Z,18.16
2022-10-01T16:33:54.931Z,18.75
2022-10-01T16:36:57.914Z,18.44
2022-10-01T16:39:59.974Z,18.71
2022-10-01T16:43:02.012Z,17.73
2022-10-01T16:46:04.672Z,17.83
2022-10-01T16:49:14.208Z,17.44
2022-10-01T16:52:16.691Z,17.15
2022-10-01T16:55:25.335Z,17.60
2022-10-01T16:58:27.556Z,17.60
2022-10-01T17:01:30.864Z,16.58
2022-10-01T17:04:33.991Z,16.20
2022-10-01T17:07:36.263Z,15.79
2022-10-01T17:10:53.736Z,15.03
2022-10-01T17:13:55.935Z,13.99
2022-10-01T17:16:58.092Z,14.22
2022-10-01T17:20:00.281Z,14.24
2022-10-01T17:23:02.372Z,13.92
2022-10-01T17:26:08.492Z,13.60
2022-10-01T17:29:11.540Z,13.10
2022-10-01T17:32:14.957Z,13.05
2022-10-01T17:35:17.209Z,12.89
2022-10-01T17:38:19.477Z,12.79
2022-10-01T17:41:21.631Z,12.65
2022-10-01T17:44:23.727Z,12.63
2022-10-01T17:47:25.807Z,12.49
2022-10-01T17:50:27.897Z,12.43
2022-10-01T17:53:35.935Z,12.28
2022-10-01T17:56:42.072Z,12.16
2022-10-01T17:59:44.171Z,12.13
2022-10-01T18:02:46.593Z,12.23
2022-10-01T18:05:48.726Z,12.14
2022-10-01T18:08:55.469Z,12.27
2022-10-01T18:11:58.210Z,12.17
2022-10-01T18:15:00.734Z,12.09
2022-10-01T18:19:45.673Z,12.13
2022-10-01T18:21:26.004Z,12.05
2022-10-01T18:24:29.036Z,12.25
2022-10-01T18:27:31.343Z,12.05
2022-10-01T18:30:33.519Z,12.01
2022-10-01T18:33:35.612Z,12.02
2022-10-01T18:37:02.709Z,12.03
2022-10-01T18:40:13.895Z,12.05
2022-10-01T18:43:23.952Z,12.00
2022-10-01T18:46:50.483Z,11.84
2022-10-01T18:50:06.537Z,11.88
2022-10-01T18:53:15.458Z,11.84
2022-10-01T18:56:32.438Z,11.97
2022-10-01T19:00:09.726Z,11.97
2022-10-01T19:03:26.480Z,11.82
2022-10-01T19:06:45.702Z,11.82
2022-10-01T19:10:41.411Z,11.96
2022-10-01T19:14:18.609Z,11.80
2022-10-01T19:17:54.575Z,11.70
2022-10-01T19:21:17.459Z,11.72
2022-10-01T19:24:45.005Z,11.71
2022-10-01T19:28:21.625Z,11.66
2022-10-01T19:31:39.271Z,11.66
2022-10-01T19:35:13.625Z,11.69
2022-10-01T19:38:33.631Z,11.72
2022-10-01T19:41:44.939Z,12.00
2022-10-01T19:45:14.159Z,11.75
2022-10-01T19:48:42.132Z,11.79
2022-10-01T19:51:59.318Z,11.77
2022-10-01T19:55:01.417Z,11.56
2022-10-01T19:58:10.734Z,11.43
2022-10-01T20:01:19.414Z,11.18
2022-10-01T20:04:41.080Z,11.68
2022-10-01T20:08:13.789Z,11.57
2022-10-01T20:11:37.057Z,11.71
2022-10-01T20:15:09.888Z,11.82
2022-10-01T20:18:49.054Z,11.70
2022-10-01T20:22:05.054Z,11.69
2022-10-01T20:25:29.010Z,11.78
2022-10-01T20:29:05.478Z,11.79
2022-10-01T20:32:21.857Z,12.01
2022-10-01T20:35:32.852Z,12.19
2022-10-01T20:39:31.179Z,11.87
2022-10-01T20:42:39.550Z,11.93
2022-10-01T20:45:41.757Z,11.75
2022-10-01T20:48:52.140Z,11.51
2022-10-01T20:52:27.863Z,11.59
2022-10-01T20:55:46.143Z,11.69
2022-10-01T20:59:07.671Z,11.69
2022-10-01T21:02:46.654Z,11.68
2022-10-01T21:05:55.541Z,11.91
2022-10-01T21:09:22.707Z,12.02
2022-10-01T21:12:34.243Z,12.06
2022-10-01T21:16:08.250Z,11.82
2022-10-01T21:19:51.220Z,11.89
2022-10-01T21:23:48.422Z,11.83
2022-10-01T21:27:21.097Z,11.57
2022-10-01T21:30:23.292Z,11.68
2022-10-01T21:33:30.566Z,11.59
2022-10-01T21:36:55.474Z,11.92
2022-10-01T21:40:41.125Z,11.95
2022-10-01T21:43:56.752Z,12.06
2022-10-01T21:47:19.940Z,12.14
2022-10-01T21:50:55.453Z,12.04
2022-10-01T21:54:11.646Z,12.04
2022-10-01T21:57:43.193Z,12.02
2022-10-01T22:01:16.004Z,12.01
2022-10-01T22:04:32.884Z,11.88
2022-10-01T22:08:22.099Z,11.68
2022-10-01T22:11:27.897Z,11.65
2022-10-01T22:14:29.946Z,11.61
2022-10-01T22:17:33.353Z,11.37
2022-10-01T22:20:35.596Z,11.13
2022-10-01T22:23:39.830Z,11.06
2022-10-01T22:27:10.436Z,11.23
2022-10-01T22:30:18.957Z,11.18
2022-10-01T22:33:37.992Z,11.30
2022-10-01T22:36:48.063Z,11.21
2022-10-01T22:39:57.347Z,11.21
2022-10-01T22:43:08.675Z,11.10
2022-10-01T22:46:29.160Z,11.20
2022-10-01T22:49:55.003Z,11.21
2022-10-01T22:53:08.759Z,11.17
2022-10-01T22:56:10.832Z,11.13
2022-10-01T22:59:35.785Z,11.09
2022-10-01T23:02:51.392Z,11.02
2022-10-01T23:06:06.077Z,10.78
2022-10-01T23:09:29.888Z,10.29
2022-10-01T23:13:05.338Z,10.29
2022-10-01T23:16:26.039Z,10.46
2022-10-01T23:19:48.938Z,10.61
2022-10-01T23:23:20.870Z,10.37
2022-10-01T23:26:39.574Z,10.44
2022-10-01T23:29:57.168Z,10.45
2022-10-01T23:33:01.956Z,10.52
2022-10-01T23:36:27.052Z,10.46
2022-10-01T23:39:44.130Z,10.44
2022-10-01T23:43:05.962Z,10.34
2022-10-01T23:46:12.169Z,10.32
2022-10-01T23:49:19.218Z,10.35
2022-10-01T23:52:42.523Z,10.72
2022-10-01T23:56:11.974Z,10.51
2022-10-01T23:59:52.194Z,10.48
